Terminal Aerodrome Forecast
Issued by NWS Shreveport, LA

Home | Current Version | Previous Version | Text Only | Print | Product List | Glossary On
Versions: 1 2 3 4 5 6 7 8 9 10 11 12
216
FTUS44 KSHV 061720
TAFTYR
TAF
KTYR 061720Z 0618/0718 07006KT P6SM SCT300
     FM070100 12004KT P6SM SKC
     FM071500 17008KT P6SM SCT300=

USA.gov is the U.S. government's official web portal to all federal, state and local government web resources and services.